CheckWX is a tool to help pilots better visualize weather data.  It is not intended as a substitute for an official pre-flight weather briefing.

01:50:45 UTC

KPTD METAR
Potsdam Municipal / Damon Field / Airport
Potsdam, New York, USA
Current

36 mins ago

KPTD 240115Z AUTO 06007KT 10SM BKN055 BKN070 M02/M08 A3019 RMK AO2
Observed
Feb-24 @ 01:15 UTC
Wind
  • 060° at 7 KTS
Visibility
10 SM
Flight Rules
VFR
Cloud Levels
  • Broken at 5,500' AGL
  • Broken at 7,000' AGL
Temperature
-2°C / 28°F
Dewpoint
-8°C / 18°F
Humidity
64%
Altimeter
30.19" Hg
Pressure
1022.32 hPa
Previous

56 mins ago

KPTD 240055Z AUTO 05007KT 10SM FEW040 FEW049 BKN060 M02/M08 A3021 RMK AO2
Observed
Feb-24 @ 00:55 UTC
Wind
  • 050° at 7 KTS
Visibility
10 SM
Flight Rules
VFR
Cloud Levels
  • Few at 4,000' AGL
  • Few at 4,900' AGL
  • Broken at 6,000' AGL
Temperature
-2°C / 28°F
Dewpoint
-8°C / 18°F
Humidity
64%
Altimeter
30.21" Hg
Pressure
1023.02 hPa
Previous

1 hour ago

KPTD 240035Z AUTO 05007KT 10SM SCT034 SCT042 BKN049 M02/M08 A3021 RMK AO2
Observed
Feb-24 @ 00:35 UTC
Wind
  • 050° at 7 KTS
Visibility
10 SM
Flight Rules
VFR
Cloud Levels
  • Scattered at 3,400' AGL
  • Scattered at 4,200' AGL
  • Broken at 4,900' AGL
Temperature
-2°C / 28°F
Dewpoint
-8°C / 18°F
Humidity
64%
Altimeter
30.21" Hg
Pressure
1023.02 hPa